Time,TemperatureF,DewpointF,PressureIn,WindDirection,WindDirectionDegrees,WindSpeedMPH,WindSpeedGustMPH,Humidity,HourlyPrecipIn,Conditions,Clouds,dailyrainin,SoftwareType,DateUTC
2013-11-14 00:21:00,66.0,33.0,29.80,SW,226,0.0,-999.0,29,-99.99,,,-99.99,,2013-11-14 08:21:00,
2013-11-14 00:53:00,64.0,34.0,29.80,SW,226,0.0,-999.0,32,-99.99,,,-99.99,,2013-11-14 08:53:00,
2013-11-14 01:21:00,62.0,32.0,29.80,SW,226,0.0,-999.0,32,-99.99,,,-99.99,,2013-11-14 09:21:00,
2013-11-14 01:52:00,61.0,33.0,29.81,SW,226,0.0,-999.0,35,-99.99,,,-99.99,,2013-11-14 09:52:00,
2013-11-14 02:23:00,61.0,35.0,29.80,SW,226,0.0,-999.0,37,-99.99,,,-99.99,,2013-11-14 10:23:00,
2013-11-14 02:42:00,61.0,35.0,29.80,SW,226,0.0,-999.0,37,-99.99,,,-99.99,,2013-11-14 10:42:00,
2013-11-14 02:52:00,60.0,34.0,29.80,SW,226,0.0,-999.0,38,-99.99,,,-99.99,,2013-11-14 10:52:00,
2013-11-14 07:42:00,56.0,33.0,29.80,SW,223,0.0,-999.0,42,-99.99,,,-99.99,,2013-11-14 15:42:00,
2013-11-14 08:23:00,60.0,36.0,29.80,SW,223,0.0,-999.0,40,-99.99,,,-99.99,,2013-11-14 16:23:00,
2013-11-14 08:52:00,66.0,38.0,29.80,SW,223,0.0,-999.0,35,-99.99,,,-99.99,,2013-11-14 16:52:00,
2013-11-14 09:22:00,74.0,40.0,29.80,SW,223,0.0,-999.0,29,-99.99,,,-99.99,,2013-11-14 17:22:00,
2013-11-14 09:42:00,79.0,40.0,29.80,SW,223,0.0,-999.0,25,-99.99,,,-99.99,,2013-11-14 17:42:00,
2013-11-14 09:52:00,83.0,41.0,29.79,ESE,119,0.0,-999.0,23,-99.99,,,-99.99,,2013-11-14 17:52:00,
2013-11-14 10:21:00,88.0,39.0,29.78,NW,306,0.0,-999.0,18,-99.99,,,-99.99,,2013-11-14 18:21:00,
2013-11-14 13:22:00,94.0,38.0,29.68,NE,36,0.0,-999.0,14,-99.99,,,-99.99,,2013-11-14 21:22:00,
2013-11-14 13:33:00,94.0,38.0,29.68,NE,36,0.0,-999.0,14,-99.99,,,-99.99,,2013-11-14 21:33:00,
2013-11-14 13:43:00,94.0,38.0,29.68,NE,36,0.0,-999.0,14,-99.99,,,-99.99,,2013-11-14 21:43:00,
2013-11-14 14:23:00,92.0,46.0,29.67,ENE,74,0.0,-999.0,21,-99.99,,,-99.99,,2013-11-14 22:23:00,
2013-11-14 14:53:00,90.0,43.0,29.67,SE,132,0.0,-999.0,20,-99.99,,,-99.99,,2013-11-14 22:53:00,
2013-11-14 15:22:00,88.0,41.0,29.66,East,81,0.0,-999.0,19,-99.99,,,-99.99,,2013-11-14 23:22:00,
2013-11-14 15:52:00,86.0,41.0,29.65,ESE,110,0.0,-999.0,21,-99.99,,,-99.99,,2013-11-14 23:52:00,
2013-11-14 16:11:00,85.0,42.0,29.65,ESE,109,0.0,-999.0,22,-99.99,,,-99.99,,2013-11-15 00:11:00,
2013-11-14 16:21:00,84.0,41.0,29.66,ESE,109,0.0,-999.0,22,-99.99,,,-99.99,,2013-11-15 00:21:00,
2013-11-14 16:52:00,81.0,47.0,29.65,ESE,109,0.0,-999.0,31,-99.99,,,-99.99,,2013-11-15 00:52:00,
2013-11-14 17:22:00,76.0,49.0,29.65,ESE,111,0.0,-999.0,39,-99.99,,,-99.99,,2013-11-15 01:22:00,
2013-11-14 17:42:00,74.0,48.0,29.65,ESE,111,0.0,-999.0,40,-99.99,,,-99.99,,2013-11-15 01:42:00,
2013-11-14 17:52:00,73.0,47.0,29.66,ESE,111,0.0,-999.0,40,-99.99,,,-99.99,,2013-11-15 01:52:00,
2013-11-14 18:22:00,69.0,44.0,29.66,ESE,111,0.0,-999.0,41,-99.99,,,-99.99,,2013-11-15 02:22:00,
2013-11-14 18:41:00,67.0,44.0,29.66,ESE,111,0.0,-999.0,43,-99.99,,,-99.99,,2013-11-15 02:41:00,
2013-11-14 18:52:00,66.0,44.0,29.67,ESE,111,0.0,-999.0,45,-99.99,,,-99.99,,2013-11-15 02:52:00,
2013-11-14 19:21:00,63.0,41.0,29.65,ESE,111,0.0,-999.0,45,-99.99,,,-99.99,,2013-11-15 03:21:00,
2013-11-14 19:44:00,62.0,40.0,29.65,ESE,111,0.0,-999.0,45,-99.99,,,-99.99,,2013-11-15 03:44:00,
2013-11-14 19:54:00,61.0,40.0,29.64,ESE,111,0.0,-999.0,46,-99.99,,,-99.99,,2013-11-15 03:54:00,
2013-11-14 20:14:00,60.0,42.0,29.65,ESE,111,0.0,-999.0,52,-99.99,,,-99.99,,2013-11-15 04:14:00,
2013-11-14 20:23:00,60.0,43.0,29.65,ESE,111,0.0,-999.0,54,-99.99,,,-99.99,,2013-11-15 04:23:00,
2013-11-14 20:42:00,59.0,45.0,29.65,ESE,111,0.0,-999.0,59,-99.99,,,-99.99,,2013-11-15 04:42:00,
2013-11-14 20:53:00,58.0,41.0,29.65,ESE,111,0.0,-999.0,54,-99.99,,,-99.99,,2013-11-15 04:53:00,
2013-11-14 21:22:00,57.0,41.0,29.65,ESE,111,0.0,-999.0,54,-99.99,,,-99.99,,2013-11-15 05:22:00,
2013-11-14 21:53:00,55.0,39.0,29.65,ESE,111,0.0,-999.0,54,-99.99,,,-99.99,,2013-11-15 05:53:00,
2013-11-14 22:23:00,55.0,40.0,29.64,ESE,111,0.0,-999.0,56,-99.99,,,-99.99,,2013-11-15 06:23:00,
2013-11-14 22:53:00,55.0,38.0,29.63,ESE,111,0.0,-999.0,53,-99.99,,,-99.99,,2013-11-15 06:53:00,
2013-11-14 23:21:00,56.0,41.0,29.62,ESE,111,0.0,-999.0,57,-99.99,,,-99.99,,2013-11-15 07:21:00,
2013-11-14 23:42:00,56.0,41.0,29.62,ESE,111,0.0,-999.0,57,-99.99,,,-99.99,,2013-11-15 07:42:00,
2013-11-14 23:52:00,56.0,39.0,29.62,ESE,111,0.0,-999.0,52,-99.99,,,-99.99,,2013-11-15 07:52:00,